sensor_id;sensor_type;location;lat;lon;timestamp;P1;durP1;ratioP1;P2;durP2;ratioP2
68108;SDS011;54893;49.864;19.084;2023-07-02T00:02:05;17.90;;;8.70;;
68108;SDS011;54893;49.864;19.084;2023-07-02T00:07:05;19.70;;;10.03;;
68108;SDS011;54893;49.864;19.084;2023-07-02T00:12:06;18.53;;;9.97;;
68108;SDS011;54893;49.864;19.084;2023-07-02T00:17:07;19.92;;;11.05;;
68108;SDS011;54893;49.864;19.084;2023-07-02T00:22:08;21.03;;;11.10;;
68108;SDS011;54893;49.864;19.084;2023-07-02T00:27:09;19.52;;;11.13;;
68108;SDS011;54893;49.864;19.084;2023-07-02T00:32:09;22.87;;;12.27;;
68108;SDS011;54893;49.864;19.084;2023-07-02T00:37:09;23.07;;;12.47;;
68108;SDS011;54893;49.864;19.084;2023-07-02T00:42:10;21.70;;;12.07;;
68108;SDS011;54893;49.864;19.084;2023-07-02T00:47:11;21.00;;;11.67;;
68108;SDS011;54893;49.864;19.084;2023-07-02T00:52:12;21.80;;;13.32;;
68108;SDS011;54893;49.864;19.084;2023-07-02T00:57:13;23.43;;;13.23;;
68108;SDS011;54893;49.864;19.084;2023-07-02T01:02:13;25.77;;;14.37;;
68108;SDS011;54893;49.864;19.084;2023-07-02T01:07:14;24.07;;;12.90;;
68108;SDS011;54893;49.864;19.084;2023-07-02T01:12:14;24.17;;;13.33;;
68108;SDS011;54893;49.864;19.084;2023-07-02T01:17:18;24.10;;;13.90;;
68108;SDS011;54893;49.864;19.084;2023-07-02T01:22:23;25.30;;;13.93;;
68108;SDS011;54893;49.864;19.084;2023-07-02T01:27:27;24.30;;;14.32;;
68108;SDS011;54893;49.864;19.084;2023-07-02T01:32:29;25.07;;;13.40;;
68108;SDS011;54893;49.864;19.084;2023-07-02T01:37:29;22.00;;;13.07;;
68108;SDS011;54893;49.864;19.084;2023-07-02T01:42:37;22.80;;;12.75;;
68108;SDS011;54893;49.864;19.084;2023-07-02T01:47:38;21.30;;;11.70;;
68108;SDS011;54893;49.864;19.084;2023-07-02T01:52:39;19.43;;;12.10;;
68108;SDS011;54893;49.864;19.084;2023-07-02T01:57:39;21.17;;;12.10;;
68108;SDS011;54893;49.864;19.084;2023-07-02T02:02:39;21.67;;;11.43;;
68108;SDS011;54893;49.864;19.084;2023-07-02T02:07:40;19.97;;;11.17;;
68108;SDS011;54893;49.864;19.084;2023-07-02T02:12:40;19.97;;;10.77;;
68108;SDS011;54893;49.864;19.084;2023-07-02T02:17:40;18.27;;;10.63;;
68108;SDS011;54893;49.864;19.084;2023-07-02T02:22:41;18.10;;;9.70;;
68108;SDS011;54893;49.864;19.084;2023-07-02T02:27:41;19.90;;;9.70;;
68108;SDS011;54893;49.864;19.084;2023-07-02T02:32:43;16.37;;;9.37;;
68108;SDS011;54893;49.864;19.084;2023-07-02T02:37:43;16.40;;;9.20;;
68108;SDS011;54893;49.864;19.084;2023-07-02T02:42:44;16.03;;;9.43;;
68108;SDS011;54893;49.864;19.084;2023-07-02T02:47:45;17.10;;;9.30;;
68108;SDS011;54893;49.864;19.084;2023-07-02T02:52:46;20.15;;;9.65;;
68108;SDS011;54893;49.864;19.084;2023-07-02T02:57:46;17.63;;;9.90;;
68108;SDS011;54893;49.864;19.084;2023-07-02T03:02:46;18.63;;;9.50;;
68108;SDS011;54893;49.864;19.084;2023-07-02T03:07:47;18.77;;;10.27;;
68108;SDS011;54893;49.864;19.084;2023-07-02T03:12:47;18.33;;;10.17;;
68108;SDS011;54893;49.864;19.084;2023-07-02T03:17:48;18.13;;;10.07;;
68108;SDS011;54893;49.864;19.084;2023-07-02T03:22:48;18.07;;;9.60;;
68108;SDS011;54893;49.864;19.084;2023-07-02T03:27:48;21.23;;;10.60;;
68108;SDS011;54893;49.864;19.084;2023-07-02T03:32:49;20.00;;;11.10;;
68108;SDS011;54893;49.864;19.084;2023-07-02T03:37:49;19.50;;;11.70;;
68108;SDS011;54893;49.864;19.084;2023-07-02T03:42:50;22.43;;;12.53;;
68108;SDS011;54893;49.864;19.084;2023-07-02T03:47:50;18.40;;;10.93;;
68108;SDS011;54893;49.864;19.084;2023-07-02T03:52:50;18.57;;;11.20;;
68108;SDS011;54893;49.864;19.084;2023-07-02T03:57:51;15.70;;;9.77;;
68108;SDS011;54893;49.864;19.084;2023-07-02T04:02:51;16.20;;;9.40;;
68108;SDS011;54893;49.864;19.084;2023-07-02T04:07:52;16.47;;;9.37;;
68108;SDS011;54893;49.864;19.084;2023-07-02T04:12:52;15.27;;;8.53;;
68108;SDS011;54893;49.864;19.084;2023-07-02T04:17:52;15.10;;;8.57;;
68108;SDS011;54893;49.864;19.084;2023-07-02T04:22:53;15.27;;;8.80;;
68108;SDS011;54893;49.864;19.084;2023-07-02T04:27:54;15.17;;;8.87;;
68108;SDS011;54893;49.864;19.084;2023-07-02T04:32:56;15.45;;;8.82;;
68108;SDS011;54893;49.864;19.084;2023-07-02T04:37:57;13.17;;;8.40;;
68108;SDS011;54893;49.864;19.084;2023-07-02T04:42:58;15.37;;;8.80;;
68108;SDS011;54893;49.864;19.084;2023-07-02T04:47:58;15.27;;;8.43;;
68108;SDS011;54893;49.864;19.084;2023-07-02T04:53:00;15.48;;;8.95;;
68108;SDS011;54893;49.864;19.084;2023-07-02T04:58:01;12.80;;;7.60;;
68108;SDS011;54893;49.864;19.084;2023-07-02T05:03:01;14.17;;;8.50;;
68108;SDS011;54893;49.864;19.084;2023-07-02T05:08:02;14.93;;;7.70;;
68108;SDS011;54893;49.864;19.084;2023-07-02T05:13:04;13.83;;;7.13;;
68108;SDS011;54893;49.864;19.084;2023-07-02T05:18:04;13.03;;;7.30;;
68108;SDS011;54893;49.864;19.084;2023-07-02T05:23:06;13.63;;;6.82;;
68108;SDS011;54893;49.864;19.084;2023-07-02T05:28:07;9.43;;;5.30;;
68108;SDS011;54893;49.864;19.084;2023-07-02T05:33:07;8.00;;;4.77;;
68108;SDS011;54893;49.864;19.084;2023-07-02T05:38:07;9.87;;;5.20;;
68108;SDS011;54893;49.864;19.084;2023-07-02T05:43:08;9.27;;;4.73;;
68108;SDS011;54893;49.864;19.084;2023-07-02T05:48:08;8.00;;;4.50;;
68108;SDS011;54893;49.864;19.084;2023-07-02T05:53:08;7.97;;;4.70;;
68108;SDS011;54893;49.864;19.084;2023-07-02T05:58:10;7.57;;;4.70;;
68108;SDS011;54893;49.864;19.084;2023-07-02T06:03:10;8.20;;;4.43;;
68108;SDS011;54893;49.864;19.084;2023-07-02T06:08:15;10.55;;;4.43;;
68108;SDS011;54893;49.864;19.084;2023-07-02T06:13:16;9.47;;;5.20;;
68108;SDS011;54893;49.864;19.084;2023-07-02T06:18:17;8.77;;;5.70;;
68108;SDS011;54893;49.864;19.084;2023-07-02T06:23:17;9.63;;;5.60;;
68108;SDS011;54893;49.864;19.084;2023-07-02T06:28:17;10.90;;;6.00;;
68108;SDS011;54893;49.864;19.084;2023-07-02T06:33:19;10.85;;;5.80;;
68108;SDS011;54893;49.864;19.084;2023-07-02T06:38:19;11.57;;;6.00;;
68108;SDS011;54893;49.864;19.084;2023-07-02T06:43:19;13.33;;;5.60;;
68108;SDS011;54893;49.864;19.084;2023-07-02T06:48:20;14.03;;;5.13;;
68108;SDS011;54893;49.864;19.084;2023-07-02T06:53:21;10.18;;;5.15;;
68108;SDS011;54893;49.864;19.084;2023-07-02T06:58:22;9.40;;;5.07;;
68108;SDS011;54893;49.864;19.084;2023-07-02T07:03:22;10.27;;;4.77;;
68108;SDS011;54893;49.864;19.084;2023-07-02T07:08:22;11.15;;;5.25;;
68108;SDS011;54893;49.864;19.084;2023-07-02T07:13:23;9.50;;;5.07;;
68108;SDS011;54893;49.864;19.084;2023-07-02T07:18:24;8.95;;;5.00;;
68108;SDS011;54893;49.864;19.084;2023-07-02T07:23:25;9.03;;;4.60;;
68108;SDS011;54893;49.864;19.084;2023-07-02T07:28:25;7.70;;;4.30;;
68108;SDS011;54893;49.864;19.084;2023-07-02T07:33:25;7.13;;;3.93;;
68108;SDS011;54893;49.864;19.084;2023-07-02T07:38:26;8.37;;;4.17;;
68108;SDS011;54893;49.864;19.084;2023-07-02T07:43:26;7.30;;;4.50;;
68108;SDS011;54893;49.864;19.084;2023-07-02T07:48:26;8.07;;;4.60;;
68108;SDS011;54893;49.864;19.084;2023-07-02T07:53:27;9.00;;;4.37;;
68108;SDS011;54893;49.864;19.084;2023-07-02T07:58:27;6.87;;;4.33;;
68108;SDS011;54893;49.864;19.084;2023-07-02T08:03:28;12.53;;;4.83;;
68108;SDS011;54893;49.864;19.084;2023-07-02T08:08:28;7.27;;;4.50;;
68108;SDS011;54893;49.864;19.084;2023-07-02T08:13:28;7.83;;;4.50;;
68108;SDS011;54893;49.864;19.084;2023-07-02T08:18:29;6.80;;;4.10;;
68108;SDS011;54893;49.864;19.084;2023-07-02T08:23:29;8.90;;;4.20;;
68108;SDS011;54893;49.864;19.084;2023-07-02T08:28:29;7.50;;;4.50;;
68108;SDS011;54893;49.864;19.084;2023-07-02T08:33:30;5.20;;;3.17;;
68108;SDS011;54893;49.864;19.084;2023-07-02T08:38:30;5.37;;;2.47;;
68108;SDS011;54893;49.864;19.084;2023-07-02T08:43:31;4.97;;;3.00;;
68108;SDS011;54893;49.864;19.084;2023-07-02T08:48:31;5.57;;;3.30;;
68108;SDS011;54893;49.864;19.084;2023-07-02T08:53:32;5.67;;;3.30;;
68108;SDS011;54893;49.864;19.084;2023-07-02T08:58:33;6.03;;;3.80;;
68108;SDS011;54893;49.864;19.084;2023-07-02T09:03:34;6.93;;;3.73;;
68108;SDS011;54893;49.864;19.084;2023-07-02T09:08:34;5.83;;;3.70;;
68108;SDS011;54893;49.864;19.084;2023-07-02T09:14:08;5.55;;;3.90;;
68108;SDS011;54893;49.864;19.084;2023-07-02T09:19:03;6.32;;;3.75;;
68108;SDS011;54893;49.864;19.084;2023-07-02T09:29:12;6.90;;;4.50;;
68108;SDS011;54893;49.864;19.084;2023-07-02T09:34:13;6.57;;;4.30;;
68108;SDS011;54893;49.864;19.084;2023-07-02T09:39:19;9.17;;;4.60;;
68108;SDS011;54893;49.864;19.084;2023-07-02T09:44:22;8.32;;;4.47;;
68108;SDS011;54893;49.864;19.084;2023-07-02T09:49:33;8.43;;;4.27;;
68108;SDS011;54893;49.864;19.084;2023-07-02T09:54:36;6.93;;;3.72;;
68108;SDS011;54893;49.864;19.084;2023-07-02T09:59:37;6.93;;;3.75;;
68108;SDS011;54893;49.864;19.084;2023-07-02T10:04:42;10.57;;;4.07;;
68108;SDS011;54893;49.864;19.084;2023-07-02T10:09:44;8.88;;;3.83;;
68108;SDS011;54893;49.864;19.084;2023-07-02T10:14:45;6.67;;;4.10;;
68108;SDS011;54893;49.864;19.084;2023-07-02T10:19:50;5.15;;;3.40;;
68108;SDS011;54893;49.864;19.084;2023-07-02T10:24:57;6.13;;;3.50;;
68108;SDS011;54893;49.864;19.084;2023-07-02T10:30:00;6.60;;;4.00;;
68108;SDS011;54893;49.864;19.084;2023-07-02T10:35:21;5.90;;;3.65;;
68108;SDS011;54893;49.864;19.084;2023-07-02T10:40:22;5.27;;;3.40;;
68108;SDS011;54893;49.864;19.084;2023-07-02T10:45:30;6.57;;;3.95;;
68108;SDS011;54893;49.864;19.084;2023-07-02T10:50:32;5.73;;;3.60;;
68108;SDS011;54893;49.864;19.084;2023-07-02T10:55:33;5.37;;;3.47;;
68108;SDS011;54893;49.864;19.084;2023-07-02T11:00:42;5.00;;;3.30;;
68108;SDS011;54893;49.864;19.084;2023-07-02T11:05:44;5.05;;;3.20;;
68108;SDS011;54893;49.864;19.084;2023-07-02T11:10:46;5.18;;;2.95;;
68108;SDS011;54893;49.864;19.084;2023-07-02T11:15:46;5.03;;;3.00;;
68108;SDS011;54893;49.864;19.084;2023-07-02T11:20:47;4.77;;;2.90;;
68108;SDS011;54893;49.864;19.084;2023-07-02T11:25:57;4.57;;;3.00;;
68108;SDS011;54893;49.864;19.084;2023-07-02T11:30:58;8.13;;;3.10;;
68108;SDS011;54893;49.864;19.084;2023-07-02T11:35:59;6.07;;;3.13;;
68108;SDS011;54893;49.864;19.084;2023-07-02T11:41:00;5.47;;;3.10;;
68108;SDS011;54893;49.864;19.084;2023-07-02T11:46:03;4.78;;;2.70;;
68108;SDS011;54893;49.864;19.084;2023-07-02T11:51:03;4.80;;;2.40;;
68108;SDS011;54893;49.864;19.084;2023-07-02T11:56:03;4.53;;;2.73;;
68108;SDS011;54893;49.864;19.084;2023-07-02T12:01:04;5.83;;;2.30;;
68108;SDS011;54893;49.864;19.084;2023-07-02T12:06:04;6.40;;;2.20;;
68108;SDS011;54893;49.864;19.084;2023-07-02T12:11:05;3.55;;;1.90;;
68108;SDS011;54893;49.864;19.084;2023-07-02T12:16:05;3.10;;;1.70;;
68108;SDS011;54893;49.864;19.084;2023-07-02T12:21:06;4.13;;;1.80;;
68108;SDS011;54893;49.864;19.084;2023-07-02T12:26:06;4.90;;;1.97;;
68108;SDS011;54893;49.864;19.084;2023-07-02T12:31:06;3.00;;;1.80;;
68108;SDS011;54893;49.864;19.084;2023-07-02T12:36:07;3.40;;;1.80;;
68108;SDS011;54893;49.864;19.084;2023-07-02T12:41:07;3.63;;;2.00;;
68108;SDS011;54893;49.864;19.084;2023-07-02T12:46:08;6.90;;;2.30;;
68108;SDS011;54893;49.864;19.084;2023-07-02T12:51:08;3.67;;;2.17;;
68108;SDS011;54893;49.864;19.084;2023-07-02T12:56:08;3.53;;;2.20;;
68108;SDS011;54893;49.864;19.084;2023-07-02T13:01:09;8.83;;;2.40;;
68108;SDS011;54893;49.864;19.084;2023-07-02T13:06:09;3.87;;;2.40;;
68108;SDS011;54893;49.864;19.084;2023-07-02T13:11:09;4.57;;;2.30;;
68108;SDS011;54893;49.864;19.084;2023-07-02T13:16:10;3.37;;;2.10;;
68108;SDS011;54893;49.864;19.084;2023-07-02T13:21:10;3.67;;;1.97;;
68108;SDS011;54893;49.864;19.084;2023-07-02T13:26:11;8.43;;;1.87;;
68108;SDS011;54893;49.864;19.084;2023-07-02T13:31:11;6.10;;;2.37;;
68108;SDS011;54893;49.864;19.084;2023-07-02T13:36:11;8.50;;;2.87;;
68108;SDS011;54893;49.864;19.084;2023-07-02T13:41:12;5.57;;;2.97;;
68108;SDS011;54893;49.864;19.084;2023-07-02T13:46:12;7.13;;;3.13;;
68108;SDS011;54893;49.864;19.084;2023-07-02T13:51:13;5.43;;;2.87;;
68108;SDS011;54893;49.864;19.084;2023-07-02T13:56:13;6.13;;;3.50;;
68108;SDS011;54893;49.864;19.084;2023-07-02T14:01:14;5.13;;;2.90;;
68108;SDS011;54893;49.864;19.084;2023-07-02T14:06:14;7.53;;;2.83;;
68108;SDS011;54893;49.864;19.084;2023-07-02T14:11:15;6.20;;;2.75;;
68108;SDS011;54893;49.864;19.084;2023-07-02T14:16:15;6.23;;;2.37;;
68108;SDS011;54893;49.864;19.084;2023-07-02T14:21:16;4.70;;;2.70;;
68108;SDS011;54893;49.864;19.084;2023-07-02T14:26:16;5.10;;;2.60;;
68108;SDS011;54893;49.864;19.084;2023-07-02T14:31:17;3.93;;;2.43;;
68108;SDS011;54893;49.864;19.084;2023-07-02T14:36:17;6.47;;;2.30;;
68108;SDS011;54893;49.864;19.084;2023-07-02T14:41:18;6.70;;;2.27;;
68108;SDS011;54893;49.864;19.084;2023-07-02T14:46:18;7.00;;;2.40;;
68108;SDS011;54893;49.864;19.084;2023-07-02T14:51:18;2.97;;;2.30;;
68108;SDS011;54893;49.864;19.084;2023-07-02T14:56:19;3.28;;;1.90;;
68108;SDS011;54893;49.864;19.084;2023-07-02T15:01:19;3.73;;;2.40;;
68108;SDS011;54893;49.864;19.084;2023-07-02T15:06:20;3.50;;;2.50;;
68108;SDS011;54893;49.864;19.084;2023-07-02T15:11:20;5.57;;;2.57;;
68108;SDS011;54893;49.864;19.084;2023-07-02T15:16:20;3.70;;;2.20;;
68108;SDS011;54893;49.864;19.084;2023-07-02T15:21:21;3.63;;;2.40;;
68108;SDS011;54893;49.864;19.084;2023-07-02T15:26:22;3.10;;;2.30;;
68108;SDS011;54893;49.864;19.084;2023-07-02T15:31:22;3.20;;;2.40;;
68108;SDS011;54893;49.864;19.084;2023-07-02T15:36:22;3.30;;;2.57;;
68108;SDS011;54893;49.864;19.084;2023-07-02T15:41:23;3.57;;;2.70;;
68108;SDS011;54893;49.864;19.084;2023-07-02T15:46:23;3.87;;;2.70;;
68108;SDS011;54893;49.864;19.084;2023-07-02T15:51:24;4.00;;;2.90;;
68108;SDS011;54893;49.864;19.084;2023-07-02T15:56:25;9.10;;;8.25;;
68108;SDS011;54893;49.864;19.084;2023-07-02T16:01:26;3.13;;;2.47;;
68108;SDS011;54893;49.864;19.084;2023-07-02T16:06:27;3.42;;;2.30;;
68108;SDS011;54893;49.864;19.084;2023-07-02T16:11:34;3.38;;;2.50;;
68108;SDS011;54893;49.864;19.084;2023-07-02T16:16:37;7.60;;;5.10;;
68108;SDS011;54893;49.864;19.084;2023-07-02T16:21:41;4.90;;;4.15;;
68108;SDS011;54893;49.864;19.084;2023-07-02T16:26:42;3.93;;;2.90;;
68108;SDS011;54893;49.864;19.084;2023-07-02T16:31:51;6.63;;;5.37;;
68108;SDS011;54893;49.864;19.084;2023-07-02T16:36:55;4.28;;;3.60;;
68108;SDS011;54893;49.864;19.084;2023-07-02T16:41:57;4.13;;;2.43;;
68108;SDS011;54893;49.864;19.084;2023-07-02T16:46:57;7.87;;;6.77;;
68108;SDS011;54893;49.864;19.084;2023-07-02T16:51:58;5.57;;;4.47;;
68108;SDS011;54893;49.864;19.084;2023-07-02T16:56:58;12.70;;;11.50;;
68108;SDS011;54893;49.864;19.084;2023-07-02T17:02:00;7.53;;;5.23;;
68108;SDS011;54893;49.864;19.084;2023-07-02T17:07:01;14.20;;;10.07;;
68108;SDS011;54893;49.864;19.084;2023-07-02T17:12:03;19.75;;;12.63;;
68108;SDS011;54893;49.864;19.084;2023-07-02T17:17:11;7.23;;;4.83;;
68108;SDS011;54893;49.864;19.084;2023-07-02T17:22:21;48.38;;;25.65;;
68108;SDS011;54893;49.864;19.084;2023-07-02T17:27:26;6.43;;;3.63;;
68108;SDS011;54893;49.864;19.084;2023-07-02T17:32:28;11.07;;;6.73;;
68108;SDS011;54893;49.864;19.084;2023-07-02T17:37:29;5.00;;;3.20;;
68108;SDS011;54893;49.864;19.084;2023-07-02T17:42:29;5.70;;;3.10;;
68108;SDS011;54893;49.864;19.084;2023-07-02T17:47:29;4.63;;;3.00;;
68108;SDS011;54893;49.864;19.084;2023-07-02T17:52:30;5.83;;;2.80;;
68108;SDS011;54893;49.864;19.084;2023-07-02T17:57:30;4.70;;;3.37;;
68108;SDS011;54893;49.864;19.084;2023-07-02T18:02:31;9.37;;;5.77;;
68108;SDS011;54893;49.864;19.084;2023-07-02T18:07:31;7.47;;;4.10;;
68108;SDS011;54893;49.864;19.084;2023-07-02T18:12:31;5.53;;;3.80;;
68108;SDS011;54893;49.864;19.084;2023-07-02T18:17:32;7.63;;;4.13;;
68108;SDS011;54893;49.864;19.084;2023-07-02T18:22:33;5.90;;;3.53;;
68108;SDS011;54893;49.864;19.084;2023-07-02T18:27:33;5.80;;;2.97;;
68108;SDS011;54893;49.864;19.084;2023-07-02T18:32:34;7.00;;;3.50;;
68108;SDS011;54893;49.864;19.084;2023-07-02T18:37:35;6.03;;;3.30;;
68108;SDS011;54893;49.864;19.084;2023-07-02T18:42:36;5.93;;;3.40;;
68108;SDS011;54893;49.864;19.084;2023-07-02T18:47:36;4.80;;;3.63;;
68108;SDS011;54893;49.864;19.084;2023-07-02T18:52:37;5.00;;;3.47;;
68108;SDS011;54893;49.864;19.084;2023-07-02T18:57:37;5.53;;;3.60;;
68108;SDS011;54893;49.864;19.084;2023-07-02T19:02:38;5.38;;;3.50;;
68108;SDS011;54893;49.864;19.084;2023-07-02T19:07:39;7.60;;;4.50;;
68108;SDS011;54893;49.864;19.084;2023-07-02T19:12:39;9.68;;;5.70;;
68108;SDS011;54893;49.864;19.084;2023-07-02T19:17:41;9.73;;;5.70;;
68108;SDS011;54893;49.864;19.084;2023-07-02T19:22:43;9.60;;;5.53;;
68108;SDS011;54893;49.864;19.084;2023-07-02T19:27:43;8.73;;;5.47;;
68108;SDS011;54893;49.864;19.084;2023-07-02T19:32:44;8.77;;;5.73;;
68108;SDS011;54893;49.864;19.084;2023-07-02T19:37:44;9.03;;;4.83;;
68108;SDS011;54893;49.864;19.084;2023-07-02T19:42:45;8.87;;;5.27;;
68108;SDS011;54893;49.864;19.084;2023-07-02T19:47:45;7.93;;;5.30;;
68108;SDS011;54893;49.864;19.084;2023-07-02T19:52:45;9.87;;;5.43;;
68108;SDS011;54893;49.864;19.084;2023-07-02T19:57:46;11.73;;;5.47;;
68108;SDS011;54893;49.864;19.084;2023-07-02T20:02:46;9.33;;;5.30;;
68108;SDS011;54893;49.864;19.084;2023-07-02T20:07:47;10.23;;;5.63;;
68108;SDS011;54893;49.864;19.084;2023-07-02T20:12:48;9.48;;;5.40;;
68108;SDS011;54893;49.864;19.084;2023-07-02T20:17:48;11.70;;;7.03;;
68108;SDS011;54893;49.864;19.084;2023-07-02T20:22:49;12.30;;;6.07;;
68108;SDS011;54893;49.864;19.084;2023-07-02T20:27:51;8.57;;;5.23;;
68108;SDS011;54893;49.864;19.084;2023-07-02T20:32:52;9.27;;;5.55;;
68108;SDS011;54893;49.864;19.084;2023-07-02T20:37:52;12.30;;;6.33;;
68108;SDS011;54893;49.864;19.084;2023-07-02T20:42:53;9.43;;;5.67;;
68108;SDS011;54893;49.864;19.084;2023-07-02T20:47:57;8.35;;;4.90;;
68108;SDS011;54893;49.864;19.084;2023-07-02T20:53:03;8.67;;;4.60;;
68108;SDS011;54893;49.864;19.084;2023-07-02T20:58:04;7.80;;;4.40;;
68108;SDS011;54893;49.864;19.084;2023-07-02T21:03:05;7.50;;;4.83;;
68108;SDS011;54893;49.864;19.084;2023-07-02T21:08:05;8.33;;;5.13;;
68108;SDS011;54893;49.864;19.084;2023-07-02T21:13:05;7.60;;;4.63;;
68108;SDS011;54893;49.864;19.084;2023-07-02T21:18:06;7.77;;;4.23;;
68108;SDS011;54893;49.864;19.084;2023-07-02T21:23:06;6.53;;;4.17;;
68108;SDS011;54893;49.864;19.084;2023-07-02T21:28:07;7.17;;;4.40;;
68108;SDS011;54893;49.864;19.084;2023-07-02T21:33:07;7.90;;;4.47;;
68108;SDS011;54893;49.864;19.084;2023-07-02T21:38:07;7.77;;;4.27;;
68108;SDS011;54893;49.864;19.084;2023-07-02T21:43:08;7.33;;;4.23;;
68108;SDS011;54893;49.864;19.084;2023-07-02T21:48:08;7.83;;;4.60;;
68108;SDS011;54893;49.864;19.084;2023-07-02T21:53:08;9.40;;;4.30;;
68108;SDS011;54893;49.864;19.084;2023-07-02T21:58:09;6.90;;;4.40;;
68108;SDS011;54893;49.864;19.084;2023-07-02T22:03:09;7.97;;;4.80;;
68108;SDS011;54893;49.864;19.084;2023-07-02T22:08:10;9.85;;;4.85;;
68108;SDS011;54893;49.864;19.084;2023-07-02T22:13:11;10.63;;;4.80;;
68108;SDS011;54893;49.864;19.084;2023-07-02T22:18:11;9.43;;;5.00;;
68108;SDS011;54893;49.864;19.084;2023-07-02T22:23:12;10.00;;;5.20;;
68108;SDS011;54893;49.864;19.084;2023-07-02T22:28:13;9.15;;;4.88;;
68108;SDS011;54893;49.864;19.084;2023-07-02T22:33:13;10.60;;;6.07;;
68108;SDS011;54893;49.864;19.084;2023-07-02T22:38:13;9.33;;;5.43;;
68108;SDS011;54893;49.864;19.084;2023-07-02T22:43:14;9.90;;;4.93;;
68108;SDS011;54893;49.864;19.084;2023-07-02T22:48:14;9.97;;;5.47;;
68108;SDS011;54893;49.864;19.084;2023-07-02T22:53:15;10.10;;;5.60;;
68108;SDS011;54893;49.864;19.084;2023-07-02T22:58:16;9.43;;;5.90;;
68108;SDS011;54893;49.864;19.084;2023-07-02T23:03:16;11.05;;;6.15;;
68108;SDS011;54893;49.864;19.084;2023-07-02T23:08:18;12.60;;;6.27;;
68108;SDS011;54893;49.864;19.084;2023-07-02T23:13:18;9.97;;;5.77;;
68108;SDS011;54893;49.864;19.084;2023-07-02T23:18:18;10.93;;;6.20;;
68108;SDS011;54893;49.864;19.084;2023-07-02T23:23:19;11.03;;;5.97;;
68108;SDS011;54893;49.864;19.084;2023-07-02T23:28:19;9.93;;;5.80;;
68108;SDS011;54893;49.864;19.084;2023-07-02T23:33:19;13.10;;;6.00;;
68108;SDS011;54893;49.864;19.084;2023-07-02T23:38:21;11.40;;;5.75;;
68108;SDS011;54893;49.864;19.084;2023-07-02T23:43:22;11.07;;;5.87;;
68108;SDS011;54893;49.864;19.084;2023-07-02T23:48:22;10.40;;;5.80;;
68108;SDS011;54893;49.864;19.084;2023-07-02T23:53:22;9.83;;;6.43;;
68108;SDS011;54893;49.864;19.084;2023-07-02T23:58:23;13.43;;;6.37;;
